Time;durP1;ratioP1;P1;durP2;ratioP2;P2;SDS_P1;SDS_P2;PMS_P1;PMS_P2;Temp;Humidity;BMP_temperature;BMP_pressure;BME280_temperature;BME280_humidity;BME280_pressure;Samples;Min_cycle;Max_cycle;Signal;HPM_P1;HPM_P2
2022/03/31 07:49:38;;;;;;;68.63;42.10;;;;;;;;;;6196355;22;20055;-88
2022/03/31 09:06:22;;;;;;;44.03;29.50;;;;;;;;;;6204448;22;20055;-88
2022/03/31 09:08:58;;;;;;;45.97;31.73;;;;;;;;;;6216304;23;20020;-88
2022/03/31 09:11:28;;;;;;;53.58;31.50;;;;;;;;;;6190323;23;20017;-87
2022/03/31 09:13:56;;;;;;;61.15;39.60;;;;;;;;;;6206885;23;20170;-88
2022/03/31 09:16:34;;;;;;;59.88;38.97;;;;;;;;;;6220236;23;20027;-89
2022/03/31 09:19:09;;;;;;;61.70;40.08;;;;;;;;;;6220334;23;20004;-89
2022/03/31 09:21:35;;;;;;;63.65;41.05;;;;;;;;;;6245669;23;20035;-89
2022/03/31 09:24:02;;;;;;;70.57;42.00;;;;;;;;;;6219839;23;20015;-89
2022/03/31 09:26:31;;;;;;;62.42;40.22;;;;;;;;;;6220263;23;20427;-88
2022/03/31 09:29:10;;;;;;;66.82;42.70;;;;;;;;;;6248141;23;19996;-88
2022/03/31 09:31:35;;;;;;;65.78;41.35;;;;;;;;;;6246983;23;20301;-88
2022/03/31 09:34:00;;;;;;;64.63;40.80;;;;;;;;;;6219843;23;20091;-88
2022/03/31 09:36:27;;;;;;;62.88;39.70;;;;;;;;;;6220265;23;20031;-88
2022/03/31 09:39:02;;;;;;;66.38;42.60;;;;;;;;;;6246828;23;20007;-88
2022/03/31 09:41:38;;;;;;;63.47;41.15;;;;;;;;;;6220096;23;20039;-87
2022/03/31 09:44:13;;;;;;;67.40;41.17;;;;;;;;;;6219831;23;20000;-88
2022/03/31 09:46:40;;;;;;;73.75;42.83;;;;;;;;;;6246599;23;20422;-89
2022/03/31 09:49:18;;;;;;;69.55;42.05;;;;;;;;;;6220005;23;19996;-88
2022/03/31 09:51:53;;;;;;;67.70;41.67;;;;;;;;;;6220112;23;20454;-88
2022/03/31 09:54:22;;;;;;;69.05;41.33;;;;;;;;;;6219951;23;20681;-89
2022/03/31 09:56:47;;;;;;;67.95;41.35;;;;;;;;;;6220271;23;20015;-89
2022/03/31 09:59:15;;;;;;;74.20;42.95;;;;;;;;;;6220343;23;20353;-89
2022/03/31 10:01:41;;;;;;;70.30;42.08;;;;;;;;;;6247190;23;20012;-90
2022/03/31 10:04:10;;;;;;;63.97;40.63;;;;;;;;;;6246624;23;20493;-88
2022/03/31 10:06:37;;;;;;;76.00;42.38;;;;;;;;;;6246411;23;20043;-87
2022/03/31 10:09:05;;;;;;;64.35;40.33;;;;;;;;;;6246425;23;20454;-87
2022/03/31 10:11:34;;;;;;;64.40;41.78;;;;;;;;;;6246583;23;20067;-87
2022/03/31 10:14:25;;;;;;;63.10;39.53;;;;;;;;;;6246554;23;20449;-88
2022/03/31 10:16:56;;;;;;;69.25;41.05;;;;;;;;;;6219682;23;20031;-89
2022/03/31 10:19:28;;;;;;;67.30;40.58;;;;;;;;;;6219673;23;20026;-89
2022/03/31 10:22:08;;;;;;;63.85;40.17;;;;;;;;;;6219727;23;20004;-89
2022/03/31 10:24:44;;;;;;;67.53;39.97;;;;;;;;;;6246405;23;20004;-89
2022/03/31 10:27:33;;;;;;;63.95;40.40;;;;;;;;;;6246508;23;20000;-89
2022/03/31 10:30:11;;;;;;;67.20;41.22;;;;;;;;;;6245206;23;20463;-88
2022/03/31 10:32:37;;;;;;;65.28;39.72;;;;;;;;;;6246218;23;20039;-88
2022/03/31 10:35:03;;;;;;;70.25;41.13;;;;;;;;;;6219866;23;20004;-90
2022/03/31 10:37:31;;;;;;;67.15;40.75;;;;;;;;;;6246296;23;20337;-88
2022/03/31 10:39:57;;;;;;;61.65;39.00;;;;;;;;;;6246535;23;20007;-89
2022/03/31 10:42:24;;;;;;;62.70;41.00;;;;;;;;;;6219405;23;20008;-88
2022/03/31 10:45:00;;;;;;;65.13;40.85;;;;;;;;;;6246276;23;20007;-87
2022/03/31 10:47:32;;;;;;;62.30;39.63;;;;;;;;;;6246250;23;20074;-88
2022/03/31 10:49:57;;;;;;;60.65;39.50;;;;;;;;;;6246459;23;20011;-89
2022/03/31 10:52:23;;;;;;;60.08;39.40;;;;;;;;;;6219425;23;20004;-88
2022/03/31 10:54:51;;;;;;;50.00;33.65;;;;;;;;;;6219225;23;20423;-87
2022/03/31 10:57:17;;;;;;;52.78;32.30;;;;;;;;;;6246684;23;20004;-88
2022/03/31 10:59:45;;;;;;;50.22;32.78;;;;;;;;;;6248890;23;20058;-89
2022/03/31 11:02:15;;;;;;;52.95;32.95;;;;;;;;;;6250026;23;20339;-88
2022/03/31 11:04:45;;;;;;;47.95;31.63;;;;;;;;;;6249396;23;20004;-90
2022/03/31 11:07:20;;;;;;;49.28;32.28;;;;;;;;;;6248613;23;20008;-87
2022/03/31 11:09:46;;;;;;;53.63;32.97;;;;;;;;;;6248534;23;20090;-88
2022/03/31 11:12:23;;;;;;;53.67;31.15;;;;;;;;;;6248275;23;20007;-88
2022/03/31 11:15:00;;;;;;;53.33;32.78;;;;;;;;;;6251113;23;20023;-87
2022/03/31 11:17:29;;;;;;;53.20;32.63;;;;;;;;;;6221988;23;20044;-88
2022/03/31 11:19:56;;;;;;;48.05;30.50;;;;;;;;;;6221446;23;20012;-88
2022/03/31 11:22:27;;;;;;;50.45;31.48;;;;;;;;;;6220917;23;20004;-88
2022/03/31 11:24:54;;;;;;;47.67;31.25;;;;;;;;;;6248122;23;19996;-88
2022/03/31 11:27:37;;;;;;;45.45;29.67;;;;;;;;;;6248164;23;20000;-88
2022/03/31 11:30:09;;;;;;;52.90;30.98;;;;;;;;;;6221646;23;20012;-89
2022/03/31 11:32:36;;;;;;;52.13;31.35;;;;;;;;;;6221016;23;20343;-89
2022/03/31 11:35:03;;;;;;;47.17;30.67;;;;;;;;;;6221192;23;20368;-89
2022/03/31 11:37:28;;;;;;;48.80;31.45;;;;;;;;;;6221328;23;20024;-90
2022/03/31 11:39:54;;;;;;;50.20;31.38;;;;;;;;;;6221429;23;20054;-89
2022/03/31 11:42:20;;;;;;;53.65;32.95;;;;;;;;;;6247831;23;20331;-90
2022/03/31 11:44:47;;;;;;;53.50;32.58;;;;;;;;;;6221175;23;20072;-90
2022/03/31 11:47:18;;;;;;;47.35;30.88;;;;;;;;;;6221216;23;20004;-89
2022/03/31 16:54:16;;;;;;;37.47;23.48;;;;;;;;;;6105885;23;1389784;-88
2022/03/31 16:56:51;;;;;;;39.67;24.40;;;;;;;;;;6186333;23;20420;-88
2022/03/31 16:59:18;;;;;;;35.70;24.45;;;;;;;;;;6180872;23;20002;-89
2022/03/31 17:01:43;;;;;;;34.72;23.85;;;;;;;;;;6156523;23;20348;-88
2022/03/31 17:04:10;;;;;;;36.83;24.70;;;;;;;;;;6130470;23;20013;-90
2022/03/31 17:06:36;;;;;;;38.95;25.40;;;;;;;;;;6156657;23;20013;-88
2022/03/31 17:09:02;;;;;;;39.10;24.77;;;;;;;;;;6130218;23;20013;-88
2022/03/31 17:11:28;;;;;;;36.38;24.65;;;;;;;;;;6156223;23;20005;-87
2022/03/31 17:13:53;;;;;;;40.47;26.52;;;;;;;;;;6132793;23;20017;-87
2022/03/31 17:16:19;;;;;;;38.17;25.33;;;;;;;;;;6130400;23;20009;-87
2022/03/31 17:18:46;;;;;;;41.88;25.85;;;;;;;;;;6156547;23;20049;-88
2022/03/31 17:21:11;;;;;;;38.72;26.35;;;;;;;;;;6129861;23;20001;-90
2022/03/31 17:23:37;;;;;;;36.08;24.65;;;;;;;;;;6156199;23;20032;-88
2022/03/31 17:26:03;;;;;;;36.47;26.08;;;;;;;;;;6154790;23;20360;-87
2022/03/31 17:28:29;;;;;;;39.80;24.95;;;;;;;;;;6156468;23;20006;-87
2022/03/31 17:30:54;;;;;;;40.28;25.75;;;;;;;;;;6156173;23;20025;-87
2022/03/31 17:33:21;;;;;;;36.95;24.77;;;;;;;;;;6156182;23;20012;-87
2022/03/31 17:35:48;;;;;;;37.50;25.92;;;;;;;;;;6156215;23;20057;-87
2022/03/31 17:38:15;;;;;;;37.97;25.30;;;;;;;;;;6156060;23;20048;-87
2022/03/31 17:40:43;;;;;;;38.90;24.20;;;;;;;;;;6156213;23;20002;-89
2022/03/31 17:43:10;;;;;;;43.28;29.70;;;;;;;;;;6130292;23;20040;-90
2022/03/31 17:45:36;;;;;;;36.33;24.73;;;;;;;;;;6156225;23;20001;-88
2022/03/31 17:48:02;;;;;;;36.95;24.48;;;;;;;;;;6154804;23;20016;-86
2022/03/31 17:50:28;;;;;;;37.97;25.77;;;;;;;;;;6156131;23;20095;-87
2022/03/31 17:52:55;;;;;;;43.63;25.52;;;;;;;;;;6155954;23;20014;-89
2022/03/31 17:55:22;;;;;;;37.42;25.83;;;;;;;;;;6156174;23;20489;-90
2022/03/31 17:57:47;;;;;;;38.22;25.13;;;;;;;;;;6162446;23;20058;-89
2022/03/31 18:00:16;;;;;;;40.47;25.42;;;;;;;;;;6130643;23;20013;-89
2022/03/31 18:02:46;;;;;;;40.92;26.35;;;;;;;;;;6157413;23;20002;-86
2022/03/31 18:05:13;;;;;;;39.22;24.45;;;;;;;;;;6129998;23;20004;-87
2022/03/31 18:07:40;;;;;;;36.10;25.98;;;;;;;;;;6156280;23;20033;-87
2022/03/31 18:10:06;;;;;;;37.60;25.08;;;;;;;;;;6156278;23;19994;-86
2022/03/31 18:12:32;;;;;;;38.63;25.65;;;;;;;;;;6130097;23;20014;-88
2022/03/31 18:14:57;;;;;;;39.80;25.02;;;;;;;;;;6129893;23;20033;-87
2022/03/31 18:17:23;;;;;;;39.83;25.67;;;;;;;;;;6156244;23;20361;-86
2022/03/31 18:19:49;;;;;;;42.65;26.92;;;;;;;;;;6156022;23;20021;-85
2022/03/31 18:22:16;;;;;;;38.10;24.98;;;;;;;;;;6156575;23;20401;-86
2022/03/31 18:24:42;;;;;;;44.75;27.13;;;;;;;;;;6156448;23;20372;-86
2022/03/31 18:27:11;;;;;;;42.80;25.48;;;;;;;;;;6156223;23;20077;-88
2022/03/31 18:35:11;;;;;;;41.42;25.05;;;;;;;;;;6156311;23;20447;-85
2022/03/31 18:37:37;;;;;;;36.13;25.70;;;;;;;;;;6156084;23;20002;-86
2022/03/31 18:40:05;;;;;;;41.25;23.70;;;;;;;;;;6157761;23;20033;-86
2022/03/31 18:42:31;;;;;;;42.08;26.40;;;;;;;;;;6157930;23;20005;-86
2022/03/31 18:44:57;;;;;;;41.50;26.02;;;;;;;;;;6157999;23;20471;-86
2022/03/31 18:47:22;;;;;;;36.95;25.38;;;;;;;;;;6133241;23;20104;-87
2022/03/31 18:49:48;;;;;;;40.42;25.00;;;;;;;;;;6157732;23;20032;-86
2022/03/31 18:52:14;;;;;;;37.47;26.38;;;;;;;;;;6157873;23;20041;-86
2022/03/31 18:54:40;;;;;;;41.40;25.70;;;;;;;;;;6158109;23;20421;-86
2022/03/31 18:57:05;;;;;;;41.22;26.17;;;;;;;;;;6157823;23;20005;-87
2022/03/31 18:59:31;;;;;;;38.35;25.13;;;;;;;;;;6157791;23;20420;-86
2022/03/31 19:01:58;;;;;;;37.33;24.88;;;;;;;;;;6131850;23;20012;-87
2022/03/31 19:04:25;;;;;;;35.05;24.90;;;;;;;;;;6131982;23;20444;-86
2022/03/31 19:07:00;;;;;;;40.80;27.23;;;;;;;;;;6157895;23;20001;-86
2022/03/31 19:09:37;;;;;;;38.50;26.20;;;;;;;;;;6157602;23;20084;-86
2022/03/31 19:12:06;;;;;;;38.50;25.30;;;;;;;;;;6157815;23;20005;-86
2022/03/31 19:14:32;;;;;;;38.90;26.75;;;;;;;;;;6131878;23;20005;-87
2022/03/31 19:16:59;;;;;;;38.75;26.42;;;;;;;;;;6131561;23;20009;-86
2022/03/31 19:19:24;;;;;;;42.38;25.25;;;;;;;;;;6158510;23;20433;-87
2022/03/31 19:21:50;;;;;;;36.70;25.98;;;;;;;;;;6157974;23;20001;-89
2022/03/31 19:24:15;;;;;;;38.42;24.45;;;;;;;;;;6131601;23;20012;-86
2022/03/31 19:26:42;;;;;;;36.47;24.40;;;;;;;;;;6157551;23;20429;-88
2022/03/31 19:29:09;;;;;;;43.92;26.17;;;;;;;;;;6157497;23;20006;-87
2022/03/31 19:31:35;;;;;;;42.55;27.90;;;;;;;;;;6157637;23;20002;-87
2022/03/31 19:34:01;;;;;;;41.22;26.75;;;;;;;;;;6158262;23;20076;-87
2022/03/31 19:36:27;;;;;;;42.30;27.90;;;;;;;;;;6157574;23;20004;-86
2022/03/31 19:38:53;;;;;;;43.42;28.85;;;;;;;;;;6157075;23;20471;-89
2022/03/31 19:41:18;;;;;;;44.60;26.52;;;;;;;;;;6157607;23;20068;-89
2022/03/31 19:43:45;;;;;;;41.83;27.80;;;;;;;;;;6157702;23;20395;-86
2022/03/31 19:46:12;;;;;;;42.15;26.45;;;;;;;;;;6131916;23;20319;-88
2022/03/31 19:48:37;;;;;;;42.97;27.25;;;;;;;;;;6157690;23;20025;-87
2022/03/31 19:51:05;;;;;;;39.33;26.60;;;;;;;;;;6157839;23;20016;-89
2022/03/31 19:53:36;;;;;;;41.50;27.02;;;;;;;;;;6156355;23;20068;-85
2022/03/31 19:56:02;;;;;;;40.60;27.27;;;;;;;;;;6157176;23;20059;-85
2022/03/31 19:58:28;;;;;;;46.78;26.80;;;;;;;;;;6156874;23;20009;-84
2022/03/31 20:00:54;;;;;;;42.80;27.38;;;;;;;;;;6156825;23;20005;-84
2022/03/31 20:03:22;;;;;;;37.45;26.85;;;;;;;;;;6157208;23;20002;-85
2022/03/31 20:05:47;;;;;;;44.40;26.60;;;;;;;;;;6130708;23;20009;-85
2022/03/31 20:08:12;;;;;;;46.47;27.60;;;;;;;;;;6156692;23;20097;-86
2022/03/31 20:10:38;;;;;;;44.90;28.20;;;;;;;;;;6156951;23;20029;-86
2022/03/31 20:13:04;;;;;;;42.42;27.33;;;;;;;;;;6157036;23;20057;-86
2022/03/31 20:15:33;;;;;;;45.03;28.67;;;;;;;;;;6157084;23;20069;-87
2022/03/31 20:17:59;;;;;;;45.83;26.98;;;;;;;;;;6156860;23;20075;-86
2022/03/31 20:20:25;;;;;;;42.53;27.83;;;;;;;;;;6130799;23;20009;-86
2022/03/31 20:22:51;;;;;;;45.13;27.08;;;;;;;;;;6156887;23;20013;-87
2022/03/31 20:25:16;;;;;;;41.60;26.77;;;;;;;;;;6156942;23;20033;-86
2022/03/31 20:27:44;;;;;;;39.47;27.27;;;;;;;;;;6156919;23;20096;-87
2022/03/31 20:30:09;;;;;;;42.75;27.88;;;;;;;;;;6156596;23;20085;-87
2022/03/31 20:32:36;;;;;;;47.97;26.85;;;;;;;;;;6157235;23;20028;-88
2022/03/31 20:35:01;;;;;;;41.42;27.33;;;;;;;;;;6130949;23;20002;-87
2022/03/31 20:37:27;;;;;;;42.80;26.98;;;;;;;;;;6130741;23;20329;-87
2022/03/31 20:39:52;;;;;;;41.50;26.00;;;;;;;;;;6156626;23;20012;-87
2022/03/31 20:42:18;;;;;;;42.90;27.13;;;;;;;;;;6156857;23;19997;-86
2022/03/31 20:44:44;;;;;;;39.85;27.08;;;;;;;;;;6130778;23;20010;-85
2022/03/31 20:47:09;;;;;;;47.85;27.48;;;;;;;;;;6156729;23;20329;-85
2022/03/31 20:49:35;;;;;;;41.42;27.13;;;;;;;;;;6155330;23;20001;-86
2022/03/31 20:52:04;;;;;;;45.47;28.27;;;;;;;;;;6156513;23;20002;-85
2022/03/31 20:54:30;;;;;;;38.47;25.80;;;;;;;;;;6156903;23;20072;-85
2022/03/31 20:56:56;;;;;;;42.58;26.95;;;;;;;;;;6156624;23;20005;-84
2022/03/31 20:59:22;;;;;;;41.28;26.25;;;;;;;;;;6130213;23;20056;-84
2022/03/31 21:01:48;;;;;;;43.10;26.88;;;;;;;;;;6156489;23;20018;-85
2022/03/31 21:04:14;;;;;;;38.72;26.52;;;;;;;;;;6156502;23;20084;-86
2022/03/31 21:06:40;;;;;;;43.60;26.65;;;;;;;;;;6156868;23;20012;-86
2022/03/31 21:09:06;;;;;;;44.17;27.45;;;;;;;;;;6131165;23;20009;-87
2022/03/31 21:11:31;;;;;;;43.65;28.58;;;;;;;;;;6157001;23;20038;-86
2022/03/31 21:13:57;;;;;;;44.63;27.80;;;;;;;;;;6156827;23;20037;-88
2022/03/31 21:16:22;;;;;;;42.78;27.88;;;;;;;;;;6157109;23;20056;-87
2022/03/31 21:18:47;;;;;;;42.08;25.25;;;;;;;;;;6156480;23;20012;-85
2022/03/31 21:21:13;;;;;;;40.05;26.52;;;;;;;;;;6156480;23;20012;-84
2022/03/31 21:23:39;;;;;;;41.88;26.00;;;;;;;;;;6130355;23;20008;-85
2022/03/31 21:26:05;;;;;;;37.25;24.88;;;;;;;;;;6156384;23;20001;-84
2022/03/31 21:28:33;;;;;;;44.38;27.50;;;;;;;;;;6156170;23;20417;-86
2022/03/31 21:30:59;;;;;;;43.47;27.00;;;;;;;;;;6156401;23;20377;-86
